sensor_id;sensor_type;location;lat;lon;timestamp;temperature;humidity
12307;DHT22;6216;51.146;7.008;2022-08-19T00:01:41;22.70;99.90
12307;DHT22;6216;51.146;7.008;2022-08-19T00:04:12;22.60;99.90
12307;DHT22;6216;51.146;7.008;2022-08-19T00:06:41;22.60;99.90
12307;DHT22;6216;51.146;7.008;2022-08-19T00:09:12;22.60;99.90
12307;DHT22;6216;51.146;7.008;2022-08-19T00:11:41;22.60;99.90
12307;DHT22;6216;51.146;7.008;2022-08-19T00:16:46;22.60;99.90
12307;DHT22;6216;51.146;7.008;2022-08-19T00:19:16;22.60;99.90
12307;DHT22;6216;51.146;7.008;2022-08-19T00:21:44;22.50;99.90
12307;DHT22;6216;51.146;7.008;2022-08-19T00:24:13;22.50;99.90
12307;DHT22;6216;51.146;7.008;2022-08-19T00:26:43;22.40;99.90
12307;DHT22;6216;51.146;7.008;2022-08-19T00:29:14;22.40;99.90
12307;DHT22;6216;51.146;7.008;2022-08-19T00:31:43;22.30;99.90
12307;DHT22;6216;51.146;7.008;2022-08-19T00:34:14;22.30;99.90
12307;DHT22;6216;51.146;7.008;2022-08-19T00:36:42;22.30;99.90
12307;DHT22;6216;51.146;7.008;2022-08-19T00:39:11;22.30;99.90
12307;DHT22;6216;51.146;7.008;2022-08-19T00:41:41;22.30;99.90
12307;DHT22;6216;51.146;7.008;2022-08-19T00:44:13;22.30;99.90
12307;DHT22;6216;51.146;7.008;2022-08-19T00:46:44;22.30;99.90
12307;DHT22;6216;51.146;7.008;2022-08-19T00:49:27;22.30;99.90
12307;DHT22;6216;51.146;7.008;2022-08-19T00:52:00;22.30;99.90
12307;DHT22;6216;51.146;7.008;2022-08-19T00:54:29;22.20;99.90
12307;DHT22;6216;51.146;7.008;2022-08-19T00:57:00;22.20;99.90
12307;DHT22;6216;51.146;7.008;2022-08-19T00:59:29;22.20;99.90
12307;DHT22;6216;51.146;7.008;2022-08-19T01:02:17;22.20;99.90
12307;DHT22;6216;51.146;7.008;2022-08-19T01:04:48;22.10;99.90
12307;DHT22;6216;51.146;7.008;2022-08-19T01:07:16;22.10;99.90
12307;DHT22;6216;51.146;7.008;2022-08-19T01:09:46;22.10;99.90
12307;DHT22;6216;51.146;7.008;2022-08-19T01:12:14;22.00;99.90
12307;DHT22;6216;51.146;7.008;2022-08-19T01:14:43;22.00;99.90
12307;DHT22;6216;51.146;7.008;2022-08-19T01:17:13;22.00;99.90
12307;DHT22;6216;51.146;7.008;2022-08-19T01:19:43;22.00;99.90
12307;DHT22;6216;51.146;7.008;2022-08-19T01:22:18;22.00;99.90
12307;DHT22;6216;51.146;7.008;2022-08-19T01:24:58;21.90;99.90
12307;DHT22;6216;51.146;7.008;2022-08-19T01:27:26;21.90;99.90
12307;DHT22;6216;51.146;7.008;2022-08-19T01:30:01;21.80;99.90
12307;DHT22;6216;51.146;7.008;2022-08-19T01:32:29;21.80;99.90
12307;DHT22;6216;51.146;7.008;2022-08-19T01:34:59;21.80;99.90
12307;DHT22;6216;51.146;7.008;2022-08-19T01:37:30;21.80;99.90
12307;DHT22;6216;51.146;7.008;2022-08-19T01:40:11;21.80;99.90
12307;DHT22;6216;51.146;7.008;2022-08-19T01:42:39;21.70;99.90
12307;DHT22;6216;51.146;7.008;2022-08-19T01:45:08;21.60;99.90
12307;DHT22;6216;51.146;7.008;2022-08-19T01:47:36;21.60;99.90
12307;DHT22;6216;51.146;7.008;2022-08-19T01:50:07;21.60;99.90
12307;DHT22;6216;51.146;7.008;2022-08-19T01:52:35;21.60;99.90
12307;DHT22;6216;51.146;7.008;2022-08-19T01:55:06;21.60;99.90
12307;DHT22;6216;51.146;7.008;2022-08-19T01:57:36;21.50;99.90
12307;DHT22;6216;51.146;7.008;2022-08-19T02:00:08;21.50;99.90
12307;DHT22;6216;51.146;7.008;2022-08-19T02:02:37;21.50;99.90
12307;DHT22;6216;51.146;7.008;2022-08-19T02:05:11;21.50;99.90
12307;DHT22;6216;51.146;7.008;2022-08-19T02:07:40;21.50;99.90
12307;DHT22;6216;51.146;7.008;2022-08-19T02:10:12;21.40;99.90
12307;DHT22;6216;51.146;7.008;2022-08-19T02:12:43;21.40;99.90
12307;DHT22;6216;51.146;7.008;2022-08-19T02:15:13;21.40;99.90
12307;DHT22;6216;51.146;7.008;2022-08-19T02:17:41;21.40;99.90
12307;DHT22;6216;51.146;7.008;2022-08-19T02:20:11;21.40;99.90
12307;DHT22;6216;51.146;7.008;2022-08-19T02:22:40;21.30;99.90
12307;DHT22;6216;51.146;7.008;2022-08-19T02:25:09;21.30;99.90
12307;DHT22;6216;51.146;7.008;2022-08-19T02:27:38;21.30;99.90
12307;DHT22;6216;51.146;7.008;2022-08-19T02:30:11;21.30;99.90
12307;DHT22;6216;51.146;7.008;2022-08-19T02:32:40;21.30;99.90
12307;DHT22;6216;51.146;7.008;2022-08-19T02:35:20;21.20;99.90
12307;DHT22;6216;51.146;7.008;2022-08-19T02:37:48;21.20;99.90
12307;DHT22;6216;51.146;7.008;2022-08-19T02:40:34;21.20;99.90
12307;DHT22;6216;51.146;7.008;2022-08-19T02:43:03;21.10;99.90
12307;DHT22;6216;51.146;7.008;2022-08-19T02:45:34;21.10;99.90
12307;DHT22;6216;51.146;7.008;2022-08-19T02:48:06;21.10;99.90
12307;DHT22;6216;51.146;7.008;2022-08-19T02:50:48;21.10;99.90
12307;DHT22;6216;51.146;7.008;2022-08-19T02:53:19;21.10;99.90
12307;DHT22;6216;51.146;7.008;2022-08-19T02:55:51;21.00;99.90
12307;DHT22;6216;51.146;7.008;2022-08-19T02:58:19;21.00;99.90
12307;DHT22;6216;51.146;7.008;2022-08-19T03:00:51;21.00;99.90
12307;DHT22;6216;51.146;7.008;2022-08-19T03:03:20;21.00;99.90
12307;DHT22;6216;51.146;7.008;2022-08-19T03:05:48;21.00;99.90
12307;DHT22;6216;51.146;7.008;2022-08-19T03:08:23;21.00;99.90
12307;DHT22;6216;51.146;7.008;2022-08-19T03:10:51;20.90;99.90
12307;DHT22;6216;51.146;7.008;2022-08-19T03:13:20;20.90;99.90
12307;DHT22;6216;51.146;7.008;2022-08-19T03:15:49;20.80;99.90
12307;DHT22;6216;51.146;7.008;2022-08-19T03:18:17;20.80;99.90
12307;DHT22;6216;51.146;7.008;2022-08-19T03:20:50;20.90;99.90
12307;DHT22;6216;51.146;7.008;2022-08-19T03:23:20;20.80;99.90
12307;DHT22;6216;51.146;7.008;2022-08-19T03:25:50;20.80;99.90
12307;DHT22;6216;51.146;7.008;2022-08-19T03:28:38;20.80;99.90
12307;DHT22;6216;51.146;7.008;2022-08-19T03:31:11;20.80;99.90
12307;DHT22;6216;51.146;7.008;2022-08-19T03:33:59;20.80;99.90
12307;DHT22;6216;51.146;7.008;2022-08-19T03:36:29;20.70;99.90
12307;DHT22;6216;51.146;7.008;2022-08-19T03:38:59;20.80;99.90
12307;DHT22;6216;51.146;7.008;2022-08-19T03:41:29;20.70;99.90
12307;DHT22;6216;51.146;7.008;2022-08-19T03:44:12;20.70;99.90
12307;DHT22;6216;51.146;7.008;2022-08-19T03:46:46;20.80;99.90
12307;DHT22;6216;51.146;7.008;2022-08-19T03:49:15;20.70;99.90
12307;DHT22;6216;51.146;7.008;2022-08-19T03:51:46;20.70;99.90
12307;DHT22;6216;51.146;7.008;2022-08-19T03:54:16;20.70;99.90
12307;DHT22;6216;51.146;7.008;2022-08-19T03:56:46;20.70;99.90
12307;DHT22;6216;51.146;7.008;2022-08-19T03:59:17;20.70;99.90
12307;DHT22;6216;51.146;7.008;2022-08-19T04:01:47;20.70;99.90
12307;DHT22;6216;51.146;7.008;2022-08-19T04:04:16;20.70;99.90
12307;DHT22;6216;51.146;7.008;2022-08-19T04:06:45;20.70;99.90
12307;DHT22;6216;51.146;7.008;2022-08-19T04:09:14;20.70;99.90
12307;DHT22;6216;51.146;7.008;2022-08-19T04:11:45;20.70;99.90
12307;DHT22;6216;51.146;7.008;2022-08-19T04:14:16;20.70;99.90
12307;DHT22;6216;51.146;7.008;2022-08-19T04:16:46;20.80;99.90
12307;DHT22;6216;51.146;7.008;2022-08-19T04:19:17;20.80;99.90
12307;DHT22;6216;51.146;7.008;2022-08-19T04:21:47;20.70;99.90
12307;DHT22;6216;51.146;7.008;2022-08-19T04:24:15;20.70;99.90
12307;DHT22;6216;51.146;7.008;2022-08-19T04:26:43;20.80;99.90
12307;DHT22;6216;51.146;7.008;2022-08-19T04:29:14;20.70;99.90
12307;DHT22;6216;51.146;7.008;2022-08-19T04:31:44;20.70;99.90
12307;DHT22;6216;51.146;7.008;2022-08-19T04:34:16;20.70;99.90
12307;DHT22;6216;51.146;7.008;2022-08-19T04:36:44;20.70;99.90
12307;DHT22;6216;51.146;7.008;2022-08-19T04:39:16;20.60;99.90
12307;DHT22;6216;51.146;7.008;2022-08-19T04:41:45;20.60;99.90
12307;DHT22;6216;51.146;7.008;2022-08-19T04:44:31;20.70;99.90
12307;DHT22;6216;51.146;7.008;2022-08-19T04:47:01;20.60;99.90
12307;DHT22;6216;51.146;7.008;2022-08-19T04:49:38;20.70;99.90
12307;DHT22;6216;51.146;7.008;2022-08-19T04:52:06;20.60;99.90
12307;DHT22;6216;51.146;7.008;2022-08-19T04:54:35;20.60;99.90
12307;DHT22;6216;51.146;7.008;2022-08-19T04:57:07;20.60;99.90
12307;DHT22;6216;51.146;7.008;2022-08-19T04:59:37;20.60;99.90
12307;DHT22;6216;51.146;7.008;2022-08-19T05:02:07;20.60;99.90
12307;DHT22;6216;51.146;7.008;2022-08-19T05:04:38;20.60;99.90
12307;DHT22;6216;51.146;7.008;2022-08-19T05:07:19;20.60;99.90
12307;DHT22;6216;51.146;7.008;2022-08-19T05:09:55;20.60;99.90
12307;DHT22;6216;51.146;7.008;2022-08-19T05:12:27;20.50;99.90
12307;DHT22;6216;51.146;7.008;2022-08-19T05:15:00;20.50;99.90
12307;DHT22;6216;51.146;7.008;2022-08-19T05:17:34;20.50;99.90
12307;DHT22;6216;51.146;7.008;2022-08-19T05:20:05;20.50;99.90
12307;DHT22;6216;51.146;7.008;2022-08-19T05:22:53;20.60;99.90
12307;DHT22;6216;51.146;7.008;2022-08-19T05:25:22;20.60;99.90
12307;DHT22;6216;51.146;7.008;2022-08-19T05:27:55;20.60;99.90
12307;DHT22;6216;51.146;7.008;2022-08-19T05:30:28;20.60;99.90
12307;DHT22;6216;51.146;7.008;2022-08-19T05:33:18;20.50;99.90
12307;DHT22;6216;51.146;7.008;2022-08-19T05:36:01;20.40;99.90
12307;DHT22;6216;51.146;7.008;2022-08-19T05:38:32;20.40;99.90
12307;DHT22;6216;51.146;7.008;2022-08-19T05:41:00;20.40;99.90
12307;DHT22;6216;51.146;7.008;2022-08-19T05:43:29;20.40;99.90
12307;DHT22;6216;51.146;7.008;2022-08-19T05:45:57;20.30;99.90
12307;DHT22;6216;51.146;7.008;2022-08-19T05:48:25;20.30;99.90
12307;DHT22;6216;51.146;7.008;2022-08-19T05:50:54;20.30;99.90
12307;DHT22;6216;51.146;7.008;2022-08-19T05:53:27;20.20;99.90
12307;DHT22;6216;51.146;7.008;2022-08-19T05:55:56;20.20;99.90
12307;DHT22;6216;51.146;7.008;2022-08-19T05:58:24;20.10;99.90
12307;DHT22;6216;51.146;7.008;2022-08-19T06:00:53;20.00;99.90
12307;DHT22;6216;51.146;7.008;2022-08-19T06:03:21;20.10;99.90
12307;DHT22;6216;51.146;7.008;2022-08-19T06:05:50;20.10;99.90
12307;DHT22;6216;51.146;7.008;2022-08-19T06:08:20;20.10;99.90
12307;DHT22;6216;51.146;7.008;2022-08-19T06:11:15;20.10;99.90
12307;DHT22;6216;51.146;7.008;2022-08-19T06:13:44;20.10;99.90
12307;DHT22;6216;51.146;7.008;2022-08-19T06:16:15;20.20;99.90
12307;DHT22;6216;51.146;7.008;2022-08-19T06:18:49;20.20;99.90
12307;DHT22;6216;51.146;7.008;2022-08-19T06:21:19;20.20;99.90
12307;DHT22;6216;51.146;7.008;2022-08-19T06:23:48;20.10;99.90
12307;DHT22;6216;51.146;7.008;2022-08-19T06:26:19;20.00;99.90
12307;DHT22;6216;51.146;7.008;2022-08-19T06:28:48;20.10;99.90
12307;DHT22;6216;51.146;7.008;2022-08-19T06:31:18;20.10;99.90
12307;DHT22;6216;51.146;7.008;2022-08-19T06:33:48;20.20;99.90
12307;DHT22;6216;51.146;7.008;2022-08-19T06:36:17;20.20;99.90
12307;DHT22;6216;51.146;7.008;2022-08-19T06:38:45;20.20;99.90
12307;DHT22;6216;51.146;7.008;2022-08-19T06:41:13;20.30;99.90
12307;DHT22;6216;51.146;7.008;2022-08-19T06:43:43;20.40;99.90
12307;DHT22;6216;51.146;7.008;2022-08-19T06:46:12;20.40;99.90
12307;DHT22;6216;51.146;7.008;2022-08-19T06:48:41;20.50;99.90
12307;DHT22;6216;51.146;7.008;2022-08-19T06:51:12;20.50;99.90
12307;DHT22;6216;51.146;7.008;2022-08-19T06:53:45;20.60;99.90
12307;DHT22;6216;51.146;7.008;2022-08-19T06:56:15;20.70;99.90
12307;DHT22;6216;51.146;7.008;2022-08-19T06:58:44;20.70;99.90
12307;DHT22;6216;51.146;7.008;2022-08-19T07:01:13;20.70;99.90
12307;DHT22;6216;51.146;7.008;2022-08-19T07:03:41;20.80;99.90
12307;DHT22;6216;51.146;7.008;2022-08-19T07:06:13;20.80;99.90
12307;DHT22;6216;51.146;7.008;2022-08-19T07:09:05;20.80;99.90
12307;DHT22;6216;51.146;7.008;2022-08-19T07:11:34;20.80;99.90
12307;DHT22;6216;51.146;7.008;2022-08-19T07:14:03;20.90;99.90
12307;DHT22;6216;51.146;7.008;2022-08-19T07:16:44;21.00;99.90
12307;DHT22;6216;51.146;7.008;2022-08-19T07:19:13;20.90;99.90
12307;DHT22;6216;51.146;7.008;2022-08-19T07:21:46;21.00;99.90
12307;DHT22;6216;51.146;7.008;2022-08-19T07:24:16;20.90;99.90
12307;DHT22;6216;51.146;7.008;2022-08-19T07:26:44;20.90;99.90
12307;DHT22;6216;51.146;7.008;2022-08-19T07:29:19;20.90;99.90
12307;DHT22;6216;51.146;7.008;2022-08-19T07:31:52;20.80;99.90
12307;DHT22;6216;51.146;7.008;2022-08-19T07:34:23;20.80;99.90
12307;DHT22;6216;51.146;7.008;2022-08-19T07:36:53;20.90;99.90
12307;DHT22;6216;51.146;7.008;2022-08-19T07:39:24;21.00;99.90
12307;DHT22;6216;51.146;7.008;2022-08-19T07:41:52;21.00;99.90
12307;DHT22;6216;51.146;7.008;2022-08-19T07:44:22;21.00;99.90
12307;DHT22;6216;51.146;7.008;2022-08-19T07:46:52;21.10;99.90
12307;DHT22;6216;51.146;7.008;2022-08-19T07:49:22;21.20;99.90
12307;DHT22;6216;51.146;7.008;2022-08-19T07:51:52;21.20;99.90
12307;DHT22;6216;51.146;7.008;2022-08-19T07:54:21;21.20;99.90
12307;DHT22;6216;51.146;7.008;2022-08-19T07:56:49;21.30;99.90
12307;DHT22;6216;51.146;7.008;2022-08-19T07:59:20;21.30;99.90
12307;DHT22;6216;51.146;7.008;2022-08-19T08:01:50;21.30;99.90
12307;DHT22;6216;51.146;7.008;2022-08-19T08:04:19;21.40;99.90
12307;DHT22;6216;51.146;7.008;2022-08-19T08:07:06;21.50;99.90
12307;DHT22;6216;51.146;7.008;2022-08-19T08:09:57;21.60;99.90
12307;DHT22;6216;51.146;7.008;2022-08-19T08:12:32;21.60;99.90
12307;DHT22;6216;51.146;7.008;2022-08-19T08:15:05;21.70;99.90
12307;DHT22;6216;51.146;7.008;2022-08-19T08:17:39;21.70;99.90
12307;DHT22;6216;51.146;7.008;2022-08-19T08:20:18;21.80;99.90
12307;DHT22;6216;51.146;7.008;2022-08-19T08:22:46;21.90;99.90
12307;DHT22;6216;51.146;7.008;2022-08-19T08:25:33;22.00;99.90
12307;DHT22;6216;51.146;7.008;2022-08-19T08:28:02;22.00;99.90
12307;DHT22;6216;51.146;7.008;2022-08-19T08:30:31;22.00;99.90
12307;DHT22;6216;51.146;7.008;2022-08-19T08:33:04;22.10;99.90
12307;DHT22;6216;51.146;7.008;2022-08-19T08:35:32;22.20;99.90
12307;DHT22;6216;51.146;7.008;2022-08-19T08:38:01;22.40;99.90
12307;DHT22;6216;51.146;7.008;2022-08-19T08:40:37;22.50;99.90
12307;DHT22;6216;51.146;7.008;2022-08-19T08:43:09;22.70;99.90
12307;DHT22;6216;51.146;7.008;2022-08-19T08:45:44;22.90;99.90
12307;DHT22;6216;51.146;7.008;2022-08-19T08:48:24;23.00;99.90
12307;DHT22;6216;51.146;7.008;2022-08-19T08:50:54;23.20;99.90
12307;DHT22;6216;51.146;7.008;2022-08-19T08:53:25;23.40;99.90
12307;DHT22;6216;51.146;7.008;2022-08-19T08:56:02;23.50;99.90
12307;DHT22;6216;51.146;7.008;2022-08-19T08:58:39;23.80;99.90
12307;DHT22;6216;51.146;7.008;2022-08-19T09:01:11;24.00;99.90
12307;DHT22;6216;51.146;7.008;2022-08-19T09:03:43;24.20;99.90
12307;DHT22;6216;51.146;7.008;2022-08-19T09:06:18;24.40;99.90
12307;DHT22;6216;51.146;7.008;2022-08-19T09:08:57;24.50;99.90
12307;DHT22;6216;51.146;7.008;2022-08-19T09:11:39;24.60;99.90
12307;DHT22;6216;51.146;7.008;2022-08-19T09:14:20;24.70;99.90
12307;DHT22;6216;51.146;7.008;2022-08-19T09:17:13;24.80;99.90
12307;DHT22;6216;51.146;7.008;2022-08-19T09:19:54;25.00;99.90
12307;DHT22;6216;51.146;7.008;2022-08-19T09:22:23;25.10;99.90
12307;DHT22;6216;51.146;7.008;2022-08-19T09:24:53;25.20;99.90
12307;DHT22;6216;51.146;7.008;2022-08-19T09:27:22;25.40;99.90
12307;DHT22;6216;51.146;7.008;2022-08-19T09:30:12;25.40;99.90
12307;DHT22;6216;51.146;7.008;2022-08-19T09:32:41;25.40;99.90
12307;DHT22;6216;51.146;7.008;2022-08-19T09:35:12;25.40;99.90
12307;DHT22;6216;51.146;7.008;2022-08-19T09:37:41;25.50;99.90
12307;DHT22;6216;51.146;7.008;2022-08-19T09:40:11;25.50;99.90
12307;DHT22;6216;51.146;7.008;2022-08-19T09:42:41;25.60;99.90
12307;DHT22;6216;51.146;7.008;2022-08-19T09:45:20;25.80;99.90
12307;DHT22;6216;51.146;7.008;2022-08-19T09:47:50;25.80;99.90
12307;DHT22;6216;51.146;7.008;2022-08-19T09:50:22;25.80;99.90
12307;DHT22;6216;51.146;7.008;2022-08-19T09:52:51;25.90;99.90
12307;DHT22;6216;51.146;7.008;2022-08-19T09:55:24;26.00;99.90
12307;DHT22;6216;51.146;7.008;2022-08-19T09:58:00;25.90;99.90
12307;DHT22;6216;51.146;7.008;2022-08-19T10:00:29;26.00;99.90
12307;DHT22;6216;51.146;7.008;2022-08-19T10:02:57;26.00;99.90
12307;DHT22;6216;51.146;7.008;2022-08-19T10:05:28;26.00;99.90
12307;DHT22;6216;51.146;7.008;2022-08-19T10:08:15;26.10;99.90
12307;DHT22;6216;51.146;7.008;2022-08-19T10:10:44;26.00;99.90
12307;DHT22;6216;51.146;7.008;2022-08-19T10:13:15;25.90;99.90
12307;DHT22;6216;51.146;7.008;2022-08-19T10:15:44;25.90;99.90
12307;DHT22;6216;51.146;7.008;2022-08-19T10:18:15;26.00;99.90
12307;DHT22;6216;51.146;7.008;2022-08-19T10:20:48;26.00;99.90
12307;DHT22;6216;51.146;7.008;2022-08-19T10:23:19;26.10;99.90
12307;DHT22;6216;51.146;7.008;2022-08-19T10:25:48;26.10;99.90
12307;DHT22;6216;51.146;7.008;2022-08-19T10:28:19;26.10;99.90
12307;DHT22;6216;51.146;7.008;2022-08-19T10:30:49;26.20;99.90
12307;DHT22;6216;51.146;7.008;2022-08-19T10:33:17;26.30;99.90
12307;DHT22;6216;51.146;7.008;2022-08-19T10:36:09;26.40;99.90
12307;DHT22;6216;51.146;7.008;2022-08-19T10:38:37;26.50;99.90
12307;DHT22;6216;51.146;7.008;2022-08-19T10:41:19;26.80;99.90
12307;DHT22;6216;51.146;7.008;2022-08-19T10:43:51;27.00;99.90
12307;DHT22;6216;51.146;7.008;2022-08-19T10:46:19;27.00;99.70
12307;DHT22;6216;51.146;7.008;2022-08-19T10:48:48;27.00;99.90
12307;DHT22;6216;51.146;7.008;2022-08-19T10:51:18;27.20;99.90
12307;DHT22;6216;51.146;7.008;2022-08-19T10:54:14;27.30;99.80
12307;DHT22;6216;51.146;7.008;2022-08-19T10:56:42;27.10;99.90
12307;DHT22;6216;51.146;7.008;2022-08-19T10:59:20;27.10;99.90
12307;DHT22;6216;51.146;7.008;2022-08-19T11:01:52;27.10;99.50
12307;DHT22;6216;51.146;7.008;2022-08-19T11:04:23;27.20;99.80
12307;DHT22;6216;51.146;7.008;2022-08-19T11:06:56;27.30;99.40
12307;DHT22;6216;51.146;7.008;2022-08-19T11:09:25;27.50;99.90
12307;DHT22;6216;51.146;7.008;2022-08-19T11:11:59;27.50;98.80
12307;DHT22;6216;51.146;7.008;2022-08-19T11:14:31;27.50;99.20
12307;DHT22;6216;51.146;7.008;2022-08-19T11:17:00;27.50;98.90
12307;DHT22;6216;51.146;7.008;2022-08-19T11:19:28;27.60;99.10
12307;DHT22;6216;51.146;7.008;2022-08-19T11:21:58;27.60;98.80
12307;DHT22;6216;51.146;7.008;2022-08-19T11:24:30;27.80;98.40
12307;DHT22;6216;51.146;7.008;2022-08-19T11:27:05;28.00;97.70
12307;DHT22;6216;51.146;7.008;2022-08-19T11:29:33;28.20;97.70
12307;DHT22;6216;51.146;7.008;2022-08-19T11:32:05;28.30;97.30
12307;DHT22;6216;51.146;7.008;2022-08-19T11:34:33;28.40;95.70
12307;DHT22;6216;51.146;7.008;2022-08-19T11:37:03;28.50;95.90
12307;DHT22;6216;51.146;7.008;2022-08-19T11:39:33;28.50;95.70
12307;DHT22;6216;51.146;7.008;2022-08-19T11:42:03;28.70;95.10
12307;DHT22;6216;51.146;7.008;2022-08-19T11:44:51;28.80;94.80
12307;DHT22;6216;51.146;7.008;2022-08-19T11:47:19;28.70;95.20
12307;DHT22;6216;51.146;7.008;2022-08-19T11:49:48;28.80;95.30
12307;DHT22;6216;51.146;7.008;2022-08-19T11:52:17;29.00;95.40
12307;DHT22;6216;51.146;7.008;2022-08-19T11:54:46;29.10;94.10
12307;DHT22;6216;51.146;7.008;2022-08-19T11:57:14;29.00;94.80
12307;DHT22;6216;51.146;7.008;2022-08-19T11:59:48;29.10;94.70
12307;DHT22;6216;51.146;7.008;2022-08-19T12:02:16;29.30;94.20
12307;DHT22;6216;51.146;7.008;2022-08-19T12:04:44;29.40;93.60
12307;DHT22;6216;51.146;7.008;2022-08-19T12:07:12;29.50;92.90
12307;DHT22;6216;51.146;7.008;2022-08-19T12:09:41;29.50;93.20
12307;DHT22;6216;51.146;7.008;2022-08-19T12:12:11;29.70;92.70
12307;DHT22;6216;51.146;7.008;2022-08-19T12:14:39;29.70;91.70
12307;DHT22;6216;51.146;7.008;2022-08-19T12:17:11;29.90;92.40
12307;DHT22;6216;51.146;7.008;2022-08-19T12:19:39;30.10;91.20
12307;DHT22;6216;51.146;7.008;2022-08-19T12:22:07;30.10;91.10
12307;DHT22;6216;51.146;7.008;2022-08-19T12:24:35;30.20;90.60
12307;DHT22;6216;51.146;7.008;2022-08-19T12:27:05;30.20;90.60
12307;DHT22;6216;51.146;7.008;2022-08-19T12:29:38;30.40;90.70
12307;DHT22;6216;51.146;7.008;2022-08-19T12:32:06;30.30;90.40
12307;DHT22;6216;51.146;7.008;2022-08-19T12:34:38;30.20;90.80
12307;DHT22;6216;51.146;7.008;2022-08-19T12:37:07;30.30;90.90
12307;DHT22;6216;51.146;7.008;2022-08-19T12:39:38;30.30;90.50
12307;DHT22;6216;51.146;7.008;2022-08-19T12:42:07;30.40;90.40
12307;DHT22;6216;51.146;7.008;2022-08-19T12:44:36;30.30;90.50
12307;DHT22;6216;51.146;7.008;2022-08-19T12:47:08;30.20;89.70
12307;DHT22;6216;51.146;7.008;2022-08-19T12:49:38;30.20;90.50
12307;DHT22;6216;51.146;7.008;2022-08-19T12:52:23;30.20;90.60
12307;DHT22;6216;51.146;7.008;2022-08-19T12:54:51;30.40;91.00
12307;DHT22;6216;51.146;7.008;2022-08-19T12:57:23;30.60;88.70
12307;DHT22;6216;51.146;7.008;2022-08-19T13:00:00;30.60;88.40
12307;DHT22;6216;51.146;7.008;2022-08-19T13:02:31;30.70;89.20
12307;DHT22;6216;51.146;7.008;2022-08-19T13:05:05;30.70;88.10
12307;DHT22;6216;51.146;7.008;2022-08-19T13:07:35;30.70;88.20
12307;DHT22;6216;51.146;7.008;2022-08-19T13:10:05;30.50;87.60
12307;DHT22;6216;51.146;7.008;2022-08-19T13:12:34;30.50;87.70
12307;DHT22;6216;51.146;7.008;2022-08-19T13:15:03;30.40;87.20
12307;DHT22;6216;51.146;7.008;2022-08-19T13:17:37;30.40;87.60
12307;DHT22;6216;51.146;7.008;2022-08-19T13:20:07;30.50;88.50
12307;DHT22;6216;51.146;7.008;2022-08-19T13:22:35;30.70;88.20
12307;DHT22;6216;51.146;7.008;2022-08-19T13:25:06;30.90;88.40
12307;DHT22;6216;51.146;7.008;2022-08-19T13:27:36;30.90;88.60
12307;DHT22;6216;51.146;7.008;2022-08-19T13:30:09;30.90;89.10
12307;DHT22;6216;51.146;7.008;2022-08-19T13:32:58;30.90;88.70
12307;DHT22;6216;51.146;7.008;2022-08-19T13:35:44;31.30;88.70
12307;DHT22;6216;51.146;7.008;2022-08-19T13:38:14;31.30;85.70
12307;DHT22;6216;51.146;7.008;2022-08-19T13:40:46;31.00;85.70
12307;DHT22;6216;51.146;7.008;2022-08-19T13:43:16;30.90;87.40
12307;DHT22;6216;51.146;7.008;2022-08-19T13:45:49;31.10;87.00
12307;DHT22;6216;51.146;7.008;2022-08-19T13:48:23;31.10;86.20
12307;DHT22;6216;51.146;7.008;2022-08-19T13:50:53;31.10;86.20
12307;DHT22;6216;51.146;7.008;2022-08-19T13:53:21;31.20;86.60
12307;DHT22;6216;51.146;7.008;2022-08-19T13:55:50;31.30;85.60
12307;DHT22;6216;51.146;7.008;2022-08-19T13:58:21;31.30;84.90
12307;DHT22;6216;51.146;7.008;2022-08-19T14:00:49;31.40;84.20
12307;DHT22;6216;51.146;7.008;2022-08-19T14:03:17;31.30;83.20
12307;DHT22;6216;51.146;7.008;2022-08-19T14:05:46;31.20;83.70
12307;DHT22;6216;51.146;7.008;2022-08-19T14:08:14;31.40;84.90
12307;DHT22;6216;51.146;7.008;2022-08-19T14:10:43;31.30;83.80
12307;DHT22;6216;51.146;7.008;2022-08-19T14:13:14;31.40;84.90
12307;DHT22;6216;51.146;7.008;2022-08-19T14:15:45;31.40;83.20
12307;DHT22;6216;51.146;7.008;2022-08-19T14:18:14;31.40;83.70
12307;DHT22;6216;51.146;7.008;2022-08-19T14:20:43;31.30;83.50
12307;DHT22;6216;51.146;7.008;2022-08-19T14:23:11;31.20;81.90
12307;DHT22;6216;51.146;7.008;2022-08-19T14:25:40;31.00;82.80
12307;DHT22;6216;51.146;7.008;2022-08-19T14:28:08;30.90;82.50
12307;DHT22;6216;51.146;7.008;2022-08-19T14:30:37;30.80;81.30
12307;DHT22;6216;51.146;7.008;2022-08-19T14:33:06;30.60;81.20
12307;DHT22;6216;51.146;7.008;2022-08-19T14:35:36;30.50;81.10
12307;DHT22;6216;51.146;7.008;2022-08-19T14:38:06;30.40;81.60
12307;DHT22;6216;51.146;7.008;2022-08-19T14:40:34;30.20;81.00
12307;DHT22;6216;51.146;7.008;2022-08-19T14:43:03;30.10;81.70
12307;DHT22;6216;51.146;7.008;2022-08-19T14:45:34;30.10;82.90
12307;DHT22;6216;51.146;7.008;2022-08-19T14:48:03;30.20;83.40
12307;DHT22;6216;51.146;7.008;2022-08-19T14:50:32;30.30;83.40
12307;DHT22;6216;51.146;7.008;2022-08-19T14:53:02;30.30;82.20
12307;DHT22;6216;51.146;7.008;2022-08-19T14:55:41;30.30;83.50
12307;DHT22;6216;51.146;7.008;2022-08-19T14:58:09;30.40;84.30
12307;DHT22;6216;51.146;7.008;2022-08-19T15:00:56;30.50;84.80
12307;DHT22;6216;51.146;7.008;2022-08-19T15:03:25;30.50;84.40
12307;DHT22;6216;51.146;7.008;2022-08-19T15:05:55;30.50;83.70
12307;DHT22;6216;51.146;7.008;2022-08-19T15:08:24;30.50;83.40
12307;DHT22;6216;51.146;7.008;2022-08-19T15:10:52;30.50;82.60
12307;DHT22;6216;51.146;7.008;2022-08-19T15:13:21;30.60;83.40
12307;DHT22;6216;51.146;7.008;2022-08-19T15:15:49;30.50;82.90
12307;DHT22;6216;51.146;7.008;2022-08-19T15:18:18;30.60;82.70
12307;DHT22;6216;51.146;7.008;2022-08-19T15:20:47;30.50;82.70
12307;DHT22;6216;51.146;7.008;2022-08-19T15:23:18;30.50;81.60
12307;DHT22;6216;51.146;7.008;2022-08-19T15:25:52;30.30;81.70
12307;DHT22;6216;51.146;7.008;2022-08-19T15:28:23;30.20;81.60
12307;DHT22;6216;51.146;7.008;2022-08-19T15:30:51;30.10;80.60
12307;DHT22;6216;51.146;7.008;2022-08-19T15:33:19;30.00;82.20
12307;DHT22;6216;51.146;7.008;2022-08-19T15:35:48;29.90;82.80
12307;DHT22;6216;51.146;7.008;2022-08-19T15:38:19;29.90;82.60
12307;DHT22;6216;51.146;7.008;2022-08-19T15:40:50;29.80;83.30
12307;DHT22;6216;51.146;7.008;2022-08-19T15:43:19;29.80;81.10
12307;DHT22;6216;51.146;7.008;2022-08-19T15:45:48;29.80;81.60
12307;DHT22;6216;51.146;7.008;2022-08-19T15:48:16;29.70;82.20
12307;DHT22;6216;51.146;7.008;2022-08-19T15:50:44;29.70;83.10
12307;DHT22;6216;51.146;7.008;2022-08-19T15:53:12;29.60;83.60
12307;DHT22;6216;51.146;7.008;2022-08-19T15:55:44;29.60;83.80
12307;DHT22;6216;51.146;7.008;2022-08-19T15:58:14;29.50;84.10
12307;DHT22;6216;51.146;7.008;2022-08-19T16:01:03;29.50;84.80
12307;DHT22;6216;51.146;7.008;2022-08-19T16:03:50;29.50;85.00
12307;DHT22;6216;51.146;7.008;2022-08-19T16:06:42;29.50;84.80
12307;DHT22;6216;51.146;7.008;2022-08-19T16:09:10;29.40;85.50
12307;DHT22;6216;51.146;7.008;2022-08-19T16:11:43;29.50;85.70
12307;DHT22;6216;51.146;7.008;2022-08-19T16:14:12;29.30;84.20
12307;DHT22;6216;51.146;7.008;2022-08-19T16:16:41;29.20;84.20